Weather at Los Angeles International Airport

Public forecast

Using degrees Fahrenheit for public forecast. Weather courtesy of forecast.io.

Current aviation weather report (METAR) for Los Angeles International Airport

Retrieved 2021/04/20 21:53 UTC (32 minutes ago):

KLAX 202153Z 24011KT 10SM FEW250 18/11 A2991 RMK AO2 SLP126 T01830106

Aviation forecast (TAF) for Los Angeles International Airport

Retrieved 2021/04/20 18:22 UTC (4 hours ago):

TAF KLAX 201720Z 2018/2124 11005KT P6SM SCT019 FM202000 26012KT P6SM SCT020 FM210300 25007KT P6SM OVC012 FM211100 12007KT P6SM OVC020 FM211600 16007KT P6SM OVC025 FM212000 24008KT P6SM BKN035